createdAt,value
2022-09-12T00:03:01.713Z,86.00
2022-09-12T00:08:04.776Z,86.06
2022-09-12T00:13:07.760Z,85.57
2022-09-12T00:18:15.806Z,85.13
2022-09-12T00:23:18.403Z,85.27
2022-09-12T00:28:20.979Z,85.23
2022-09-12T00:33:25.178Z,85.59
2022-09-12T00:38:27.926Z,85.79
2022-09-12T00:43:37.230Z,85.69
2022-09-12T00:48:44.270Z,85.73
2022-09-12T00:53:49.158Z,85.74
2022-09-12T00:58:54.996Z,85.71
2022-09-12T01:03:59.349Z,86.32
2022-09-12T01:09:03.971Z,86.84
2022-09-12T01:14:07.010Z,87.01
2022-09-12T01:19:26.733Z,87.10
2022-09-12T01:24:47.688Z,86.33
2022-09-12T01:30:25.931Z,86.33
2022-09-12T01:35:33.426Z,86.20
2022-09-12T01:40:42.276Z,86.30
2022-09-12T01:45:47.717Z,86.63
2022-09-12T01:50:54.721Z,86.53
2022-09-12T01:56:02.737Z,86.44
2022-09-12T02:01:08.652Z,86.58
2022-09-12T02:06:18.148Z,86.58
2022-09-12T02:11:21.443Z,86.50
2022-09-12T02:16:28.081Z,86.79
2022-09-12T02:21:33.076Z,87.09
2022-09-12T02:26:38.933Z,87.30
2022-09-12T02:31:45.702Z,87.43
2022-09-12T02:36:56.078Z,87.98
2022-09-12T02:42:00.932Z,88.20
2022-09-12T02:47:07.174Z,88.03
2022-09-12T02:52:11.201Z,87.50
2022-09-12T02:57:21.899Z,87.06
2022-09-12T03:02:33.730Z,87.09
2022-09-12T03:07:49.013Z,86.90
2022-09-12T03:12:59.407Z,87.06
2022-09-12T03:18:09.108Z,87.03
2022-09-12T03:23:18.762Z,87.10
2022-09-12T03:28:23.533Z,87.14
2022-09-12T03:33:27.308Z,87.25
2022-09-12T03:38:31.396Z,87.49
2022-09-12T03:43:33.992Z,87.25
2022-09-12T03:48:36.885Z,87.19
2022-09-12T03:53:40.928Z,87.13
2022-09-12T03:58:43.672Z,87.14
2022-09-12T04:03:47.751Z,87.25
2022-09-12T04:08:53.451Z,87.16
2022-09-12T04:13:56.065Z,87.38
2022-09-12T04:18:59.434Z,87.33
2022-09-12T04:24:03.724Z,87.49
2022-09-12T04:29:06.408Z,87.53
2022-09-12T04:34:09.096Z,87.46
2022-09-12T04:39:13.146Z,87.51
2022-09-12T04:44:16.281Z,87.40
2022-09-12T04:49:19.395Z,87.47
2022-09-12T04:54:23.406Z,87.26
2022-09-12T04:59:26.486Z,87.24
2022-09-12T05:04:29.332Z,87.10
2022-09-12T05:09:33.357Z,87.06
2022-09-12T05:14:36.011Z,86.85
2022-09-12T05:19:39.138Z,86.69
2022-09-12T05:24:49.866Z,86.74
2022-09-12T05:29:53.204Z,86.47
2022-09-12T05:34:55.914Z,86.37
2022-09-12T05:40:00.341Z,85.96
2022-09-12T05:45:02.978Z,86.24
2022-09-12T05:50:10.764Z,86.20
2022-09-12T05:55:14.812Z,85.90
2022-09-12T06:00:19.046Z,85.98
2022-09-12T06:05:21.755Z,85.74
2022-09-12T06:10:26.297Z,86.17
2022-09-12T06:15:28.991Z,86.19
2022-09-12T06:20:31.593Z,86.55
2022-09-12T06:25:35.599Z,86.60
2022-09-12T06:30:38.287Z,86.75
2022-09-12T06:35:40.958Z,86.95
2022-09-12T06:40:45.419Z,87.09
2022-09-12T06:45:50.172Z,87.32
2022-09-12T06:50:59.592Z,87.29
2022-09-12T06:56:05.836Z,87.29
2022-09-12T07:01:10.785Z,87.28
2022-09-12T07:06:15.547Z,86.97
2022-09-12T07:11:21.856Z,86.23
2022-09-12T07:16:24.657Z,86.02
2022-09-12T07:21:27.787Z,85.80
2022-09-12T07:26:32.613Z,85.19
2022-09-12T07:31:35.207Z,84.94
2022-09-12T07:36:39.161Z,85.10
2022-09-12T07:41:43.244Z,84.78
2022-09-12T07:46:46.167Z,84.43
2022-09-12T07:51:48.773Z,83.83
2022-09-12T07:56:52.770Z,83.80
2022-09-12T08:01:55.351Z,83.88
2022-09-12T08:06:57.995Z,83.88
2022-09-12T08:12:02.301Z,83.97
2022-09-12T08:17:05.356Z,84.14
2022-09-12T08:22:08.230Z,84.23
2022-09-12T08:27:12.410Z,84.49
2022-09-12T08:32:15.062Z,84.23
2022-09-12T08:37:17.755Z,83.95
2022-09-12T08:42:33.066Z,83.68
2022-09-12T08:47:37.891Z,83.34
2022-09-12T08:52:45.373Z,83.13
2022-09-12T08:57:49.328Z,82.72
2022-09-12T09:03:06.355Z,82.80
2022-09-12T09:08:17.855Z,82.14
2022-09-12T09:13:57.979Z,81.66
2022-09-12T09:19:05.593Z,81.14
2022-09-12T09:24:11.226Z,81.27
2022-09-12T09:29:18.979Z,81.20
2022-09-12T09:34:23.613Z,80.44
2022-09-12T09:39:47.488Z,79.63
2022-09-12T09:44:54.047Z,80.01
2022-09-12T09:49:56.881Z,79.23
2022-09-12T09:55:01.685Z,77.72
2022-09-12T10:00:22.618Z,77.02
2022-09-12T10:05:25.253Z,76.68
2022-09-12T10:10:27.992Z,75.95
2022-09-12T10:15:32.737Z,76.19
2022-09-12T10:20:36.869Z,76.85
2022-09-12T10:25:40.121Z,76.35
2022-09-12T10:30:52.492Z,76.30
2022-09-12T10:35:55.957Z,75.92
2022-09-12T10:41:01.323Z,76.03
2022-09-12T10:46:24.081Z,75.08
2022-09-12T10:51:29.209Z,74.36
2022-09-12T10:56:33.529Z,73.36
2022-09-12T11:01:41.800Z,71.81
2022-09-12T11:06:55.259Z,71.34
2022-09-12T11:12:04.602Z,71.67
2022-09-12T11:17:18.222Z,71.64
2022-09-12T11:22:31.870Z,70.23
2022-09-12T11:27:44.992Z,71.52
2022-09-12T11:33:13.926Z,63.58
2022-09-12T11:38:52.181Z,66.95
2022-09-12T11:43:58.757Z,61.35
2022-09-12T11:49:07.848Z,62.25
2022-09-12T11:54:20.821Z,66.37
2022-09-12T11:59:32.197Z,68.09
2022-09-12T12:04:41.275Z,67.16
2022-09-12T12:09:49.215Z,66.20
2022-09-12T12:14:53.429Z,62.38
2022-09-12T12:20:06.678Z,59.08
2022-09-12T12:25:29.733Z,62.92
2022-09-12T12:31:03.618Z,66.69
2022-09-12T12:36:09.683Z,68.58
2022-09-12T12:41:46.521Z,66.73
2022-09-12T12:47:09.946Z,64.35
2022-09-12T12:52:19.369Z,62.08
2022-09-12T12:57:35.958Z,59.90
2022-09-12T13:02:42.211Z,59.88
2022-09-12T13:07:48.059Z,59.52
2022-09-12T13:12:52.189Z,58.67
2022-09-12T13:17:55.109Z,58.20
2022-09-12T13:22:59.454Z,58.03
2022-09-12T13:28:07.792Z,57.26
2022-09-12T13:33:17.853Z,57.48
2022-09-12T13:38:27.552Z,58.37
2022-09-12T13:43:38.323Z,58.75
2022-09-12T13:48:41.764Z,58.66
2022-09-12T13:53:47.374Z,58.01
2022-09-12T13:58:55.706Z,58.01
2022-09-12T14:04:16.154Z,58.45
2022-09-12T14:09:25.438Z,59.23
2022-09-12T14:14:31.700Z,59.65
2022-09-12T14:19:34.593Z,60.04
2022-09-12T14:24:39.144Z,60.22
2022-09-12T14:29:44.018Z,60.75
2022-09-12T14:35:05.296Z,61.00
2022-09-12T14:40:17.550Z,61.14
2022-09-12T14:45:26.199Z,61.80
2022-09-12T14:50:31.460Z,61.90
2022-09-12T14:55:42.258Z,61.65
2022-09-12T15:00:59.814Z,61.53
2022-09-12T15:06:03.976Z,61.61
2022-09-12T15:11:08.627Z,61.51
2022-09-12T15:16:12.314Z,61.40
2022-09-12T15:21:18.658Z,61.49
2022-09-12T15:26:24.034Z,61.90
2022-09-12T15:31:29.883Z,62.09
2022-09-12T15:36:32.772Z,61.99
2022-09-12T15:41:39.017Z,61.76
2022-09-12T15:46:42.092Z,62.09
2022-09-12T15:51:44.771Z,62.27
2022-09-12T15:56:49.006Z,62.80
2022-09-12T16:01:52.076Z,62.98
2022-09-12T16:06:56.148Z,63.14
2022-09-12T16:12:00.187Z,63.53
2022-09-12T16:17:03.019Z,63.80
2022-09-12T16:22:05.952Z,63.76
2022-09-12T16:27:09.877Z,63.37
2022-09-12T16:32:12.503Z,63.32
2022-09-12T16:37:15.096Z,62.80
2022-09-12T16:42:19.779Z,62.80
2022-09-12T16:47:22.822Z,62.14
2022-09-12T16:52:25.543Z,61.87
2022-09-12T16:57:29.507Z,62.20
2022-09-12T17:02:32.185Z,62.63
2022-09-12T17:07:35.191Z,63.38
2022-09-12T17:12:39.295Z,64.21
2022-09-12T17:17:42.011Z,65.16
2022-09-12T17:22:44.779Z,65.51
2022-09-12T17:27:48.753Z,66.00
2022-09-12T17:32:52.482Z,66.56
2022-09-12T17:37:55.429Z,66.94
2022-09-12T17:42:59.515Z,67.42
2022-09-12T17:48:02.557Z,67.91
2022-09-12T17:53:06.413Z,68.24
2022-09-12T17:58:10.866Z,68.50
2022-09-12T18:03:13.901Z,69.07
2022-09-12T18:08:16.637Z,69.24
2022-09-12T18:13:20.905Z,69.62
2022-09-12T18:18:23.831Z,69.97
2022-09-12T18:23:26.910Z,70.25
2022-09-12T18:28:32.980Z,70.63
2022-09-12T18:33:35.892Z,70.80
2022-09-12T18:38:39.385Z,70.96
2022-09-12T18:43:43.387Z,71.20
2022-09-12T18:48:46.780Z,71.62
2022-09-12T18:53:51.929Z,71.82
2022-09-12T18:58:57.564Z,71.89
2022-09-12T19:04:04.617Z,72.14
2022-09-12T19:09:09.021Z,72.73
2022-09-12T19:14:13.066Z,72.60
2022-09-12T19:19:15.749Z,72.84
2022-09-12T19:24:18.531Z,73.14
2022-09-12T19:29:22.507Z,73.25
2022-09-12T19:34:25.143Z,73.43
2022-09-12T19:39:27.910Z,73.49
2022-09-12T19:44:32.433Z,73.67
2022-09-12T19:49:35.033Z,73.71
2022-09-12T19:54:37.829Z,73.95
2022-09-12T19:59:42.695Z,74.21
2022-09-12T20:04:45.396Z,74.32
2022-09-12T20:09:48.048Z,74.35
2022-09-12T20:14:52.013Z,74.43
2022-09-12T20:19:54.686Z,74.58
2022-09-12T20:24:57.317Z,74.49
2022-09-12T20:30:01.272Z,74.39
2022-09-12T20:35:04.106Z,74.40
2022-09-12T20:40:07.817Z,74.49
2022-09-12T20:45:12.393Z,74.46
2022-09-12T20:50:15.381Z,74.47
2022-09-12T20:55:18.190Z,74.53
2022-09-12T21:00:22.274Z,74.60
2022-09-12T21:05:24.907Z,74.65
2022-09-12T21:10:27.705Z,74.94
2022-09-12T21:15:31.679Z,74.92
2022-09-12T21:20:34.572Z,75.04
2022-09-12T21:25:37.246Z,75.07
2022-09-12T21:30:41.205Z,75.29
2022-09-12T21:35:44.390Z,75.22
2022-09-12T21:40:47.627Z,75.13
2022-09-12T21:45:58.102Z,75.41
2022-09-12T21:51:01.384Z,75.45
2022-09-12T21:56:05.604Z,75.48
2022-09-12T22:01:12.560Z,75.59
2022-09-12T22:06:17.780Z,75.63
2022-09-12T22:11:23.693Z,75.68
2022-09-12T22:16:27.872Z,75.71
2022-09-12T22:21:30.501Z,75.71
2022-09-12T22:26:34.941Z,76.04
2022-09-12T22:31:39.129Z,76.01
2022-09-12T22:36:41.953Z,76.08
2022-09-12T22:41:44.683Z,76.28
2022-09-12T22:46:48.652Z,76.46
2022-09-12T22:51:51.328Z,76.67
2022-09-12T22:56:54.019Z,76.82
2022-09-12T23:01:57.973Z,76.67
2022-09-12T23:07:00.635Z,76.97
2022-09-12T23:12:03.827Z,77.06
2022-09-12T23:17:08.074Z,77.09
2022-09-12T23:22:10.713Z,77.28
2022-09-12T23:27:13.340Z,77.12
2022-09-12T23:32:17.919Z,77.23
2022-09-12T23:37:21.642Z,77.39
2022-09-12T23:42:24.389Z,77.67
2022-09-12T23:47:28.279Z,77.61
2022-09-12T23:52:30.868Z,77.75
2022-09-12T23:57:33.449Z,77.47
